createdAt,value
2023-04-09T00:04:21.174Z,9.28
2023-04-09T00:09:43.123Z,9.26
2023-04-09T00:15:05.098Z,9.26
2023-04-09T00:20:27.087Z,9.27
2023-04-09T00:25:49.110Z,9.30
2023-04-09T00:31:11.134Z,9.30
2023-04-09T00:36:33.098Z,9.30
2023-04-09T00:41:55.086Z,9.31
2023-04-09T00:47:17.072Z,9.32
2023-04-09T00:52:39.084Z,9.30
2023-04-09T00:58:01.098Z,9.28
2023-04-09T01:03:23.131Z,9.25
2023-04-09T01:09:01.099Z,9.19
2023-04-09T01:14:32.056Z,9.10
2023-04-09T01:20:39.070Z,9.05
2023-04-09T01:26:42.071Z,8.99
2023-04-09T01:32:06.058Z,8.95
2023-04-09T01:37:30.056Z,8.94
2023-04-09T01:42:53.072Z,8.90
2023-04-09T01:48:16.075Z,8.88
2023-04-09T01:53:38.046Z,8.83
2023-04-09T01:59:00.068Z,8.79
2023-04-09T02:04:33.061Z,8.75
2023-04-09T02:09:56.054Z,8.69
2023-04-09T02:15:20.067Z,8.67
2023-04-09T02:20:42.062Z,8.62
2023-04-09T02:26:06.037Z,8.54
2023-04-09T02:31:28.071Z,8.46
2023-04-09T02:36:50.051Z,8.40
2023-04-09T02:42:14.054Z,8.35
2023-04-09T02:47:37.079Z,8.30
2023-04-09T02:52:59.051Z,8.24
2023-04-09T02:58:21.064Z,8.16
2023-04-09T03:03:44.264Z,8.10
2023-04-09T03:09:06.039Z,8.04
2023-04-09T03:14:28.040Z,7.99
2023-04-09T03:19:50.040Z,7.94
2023-04-09T03:25:12.049Z,7.87
2023-04-09T03:30:35.035Z,7.80
2023-04-09T03:35:57.091Z,7.75
2023-04-09T03:41:30.031Z,7.73
2023-04-09T03:46:55.090Z,7.72
2023-04-09T03:52:17.025Z,7.72
2023-04-09T03:57:47.068Z,7.75
2023-04-09T04:03:15.165Z,7.75
2023-04-09T04:08:55.152Z,7.71
2023-04-09T04:14:28.025Z,7.70
2023-04-09T04:19:58.022Z,7.66
2023-04-09T04:25:25.018Z,7.66
2023-04-09T04:30:49.032Z,7.66
2023-04-09T04:36:24.992Z,7.64
2023-04-09T04:41:46.990Z,7.60
2023-04-09T04:47:12.033Z,7.58
2023-04-09T04:52:34.012Z,7.57
2023-04-09T04:57:57.002Z,7.55
2023-04-09T05:03:28.107Z,7.53
2023-04-09T05:09:11.021Z,7.52
2023-04-09T05:14:44.999Z,7.54
2023-04-09T05:20:08.045Z,7.58
2023-04-09T05:25:49.988Z,7.62
2023-04-09T05:31:30.999Z,7.68
2023-04-09T05:36:56.992Z,7.72
2023-04-09T05:42:19.996Z,7.77
2023-04-09T05:47:55.036Z,7.84
2023-04-09T05:53:17.976Z,7.90
2023-04-09T05:58:39.971Z,7.98
2023-04-09T06:04:02.369Z,8.03
2023-04-09T06:09:23.993Z,8.11
2023-04-09T06:14:46.004Z,8.16
2023-04-09T06:20:07.982Z,8.20
2023-04-09T06:25:29.980Z,8.28
2023-04-09T06:30:52.027Z,8.36
2023-04-09T06:36:14.056Z,8.48
2023-04-09T06:41:35.980Z,8.58
2023-04-09T06:47:16.985Z,8.71
2023-04-09T06:52:38.973Z,8.83
2023-04-09T06:58:00.961Z,8.90
2023-04-09T07:03:23.050Z,8.95
2023-04-09T07:08:44.978Z,8.98
2023-04-09T07:14:06.983Z,9.04
2023-04-09T07:19:28.966Z,9.13
2023-04-09T07:24:50.939Z,9.26
2023-04-09T07:30:12.956Z,9.40
2023-04-09T07:35:34.992Z,9.51
2023-04-09T07:40:56.950Z,9.58
2023-04-09T07:46:25.042Z,9.66
2023-04-09T07:51:46.968Z,9.57
2023-04-09T07:57:08.950Z,9.58
2023-04-09T08:02:31.297Z,9.50
2023-04-09T08:07:52.940Z,9.45
2023-04-09T08:13:21.935Z,9.37
2023-04-09T08:18:43.945Z,9.50
2023-04-09T08:24:10.938Z,9.68
2023-04-09T08:29:32.920Z,9.91
2023-04-09T08:34:54.928Z,10.16
2023-04-09T08:40:17.940Z,10.38
2023-04-09T08:45:40.033Z,10.66
2023-04-09T08:51:01.964Z,10.89
2023-04-09T08:56:23.957Z,10.95
2023-04-09T09:01:46.025Z,10.93
2023-04-09T09:07:08.009Z,11.03
2023-04-09T09:12:47.925Z,11.15
2023-04-09T09:18:09.942Z,11.26
2023-04-09T09:23:47.933Z,11.26
2023-04-09T09:29:10.895Z,11.22
2023-04-09T09:34:34.958Z,11.29
2023-04-09T09:39:56.924Z,11.35
2023-04-09T09:45:30.912Z,11.43
2023-04-09T09:50:54.922Z,11.39
2023-04-09T09:56:20.937Z,11.39
2023-04-09T10:01:43.953Z,11.36
2023-04-09T10:07:05.962Z,11.42
2023-04-09T10:12:31.951Z,11.56
2023-04-09T10:17:53.947Z,11.74
2023-04-09T10:23:21.974Z,11.87
2023-04-09T10:28:43.926Z,12.02
2023-04-09T10:34:11.068Z,12.17
2023-04-09T10:39:32.942Z,12.29
2023-04-09T10:45:10.902Z,12.32
2023-04-09T10:50:38.905Z,12.41
2023-04-09T10:56:01.955Z,12.48
2023-04-09T11:01:16.936Z,12.62
2023-04-09T11:06:39.898Z,12.68
2023-04-09T11:12:03.900Z,12.79
2023-04-09T11:17:26.907Z,12.95
2023-04-09T11:22:48.909Z,13.10
2023-04-09T11:28:10.901Z,13.20
2023-04-09T11:33:40.900Z,13.28
2023-04-09T11:39:02.891Z,13.38
2023-04-09T11:44:24.886Z,13.45
2023-04-09T11:49:46.903Z,13.59
2023-04-09T11:55:10.917Z,13.71
2023-04-09T12:00:33.887Z,13.85
2023-04-09T12:05:55.895Z,14.05
2023-04-09T12:11:21.917Z,14.29
2023-04-09T12:16:43.919Z,14.45
2023-04-09T12:22:07.897Z,14.64
2023-04-09T12:27:30.240Z,14.82
2023-04-09T12:32:52.962Z,15.04
2023-04-09T12:38:14.889Z,15.17
2023-04-09T12:43:36.859Z,15.18
2023-04-09T12:48:58.884Z,15.22
2023-04-09T12:54:20.864Z,15.23
2023-04-09T12:59:42.874Z,15.36
2023-04-09T13:05:04.873Z,15.46
2023-04-09T13:10:26.871Z,15.50
2023-04-09T13:15:51.870Z,15.56
2023-04-09T13:21:13.859Z,15.63
2023-04-09T13:26:35.872Z,15.74
2023-04-09T13:31:57.892Z,15.89
2023-04-09T13:37:19.873Z,16.08
2023-04-09T13:42:41.839Z,16.29
2023-04-09T13:48:03.895Z,16.42
2023-04-09T13:53:26.866Z,16.44
2023-04-09T13:58:49.941Z,16.40
2023-04-09T14:04:11.903Z,16.30
2023-04-09T14:09:33.855Z,16.08
2023-04-09T14:14:56.845Z,15.86
2023-04-09T14:20:18.846Z,15.68
2023-04-09T14:25:40.850Z,15.55
2023-04-09T14:31:02.864Z,15.49
2023-04-09T14:36:24.862Z,15.44
2023-04-09T14:41:46.832Z,15.43
2023-04-09T14:47:08.885Z,15.52
2023-04-09T14:52:30.850Z,15.63
2023-04-09T14:57:52.855Z,15.64
2023-04-09T15:03:15.108Z,15.52
2023-04-09T15:08:36.873Z,15.10
2023-04-09T15:14:14.852Z,14.78
2023-04-09T15:19:37.850Z,14.70
2023-04-09T15:24:59.854Z,14.70
2023-04-09T15:30:21.839Z,14.70
2023-04-09T15:35:43.877Z,14.70
2023-04-09T15:41:05.862Z,14.72
2023-04-09T15:46:27.824Z,14.70
2023-04-09T15:51:49.832Z,14.73
2023-04-09T15:57:11.838Z,14.90
2023-04-09T16:02:33.872Z,15.17
2023-04-09T16:07:58.281Z,15.44
2023-04-09T16:13:20.844Z,15.74
2023-04-09T16:18:42.829Z,16.01
2023-04-09T16:24:04.843Z,16.27
2023-04-09T16:29:26.818Z,16.48
2023-04-09T16:34:48.824Z,16.70
2023-04-09T16:40:10.827Z,16.80
2023-04-09T16:45:32.860Z,16.88
2023-04-09T16:50:54.831Z,16.91
2023-04-09T16:56:16.867Z,16.98
2023-04-09T17:01:38.873Z,17.01
2023-04-09T17:07:00.827Z,16.99
2023-04-09T17:12:22.812Z,16.89
2023-04-09T17:17:44.865Z,16.82
2023-04-09T17:23:06.810Z,16.73
2023-04-09T17:28:28.802Z,16.56
2023-04-09T17:33:50.819Z,16.36
2023-04-09T17:39:12.840Z,16.10
2023-04-09T17:44:34.819Z,15.89
2023-04-09T17:49:56.818Z,15.66
2023-04-09T17:55:25.805Z,15.45
2023-04-09T18:00:47.799Z,15.24
2023-04-09T18:06:02.837Z,15.03
2023-04-09T18:11:24.810Z,14.84
2023-04-09T18:16:46.807Z,14.65
2023-04-09T18:22:08.779Z,14.51
2023-04-09T18:27:31.046Z,14.43
2023-04-09T18:32:54.836Z,14.32
2023-04-09T18:38:16.802Z,14.25
2023-04-09T18:43:41.877Z,14.20
2023-04-09T18:49:05.433Z,14.13
2023-04-09T18:54:27.029Z,14.07
2023-04-09T18:59:51.798Z,13.96
2023-04-09T19:05:13.799Z,13.82
2023-04-09T19:10:35.805Z,13.62
2023-04-09T19:15:57.849Z,13.42
2023-04-09T19:21:19.828Z,13.28
2023-04-09T19:26:41.797Z,13.12
2023-04-09T19:32:03.805Z,12.98
2023-04-09T19:37:25.836Z,12.89
2023-04-09T19:42:47.805Z,12.80
2023-04-09T19:48:09.869Z,12.72
2023-04-09T19:53:31.786Z,12.65
2023-04-09T19:58:55.040Z,12.55
2023-04-09T20:04:16.803Z,12.45
2023-04-09T20:09:38.775Z,12.42
2023-04-09T20:15:09.696Z,12.32
2023-04-09T20:20:31.788Z,12.23
2023-04-09T20:25:53.774Z,12.15
2023-04-09T20:31:15.778Z,12.09
2023-04-09T20:36:37.931Z,12.01
2023-04-09T20:41:59.800Z,11.99
2023-04-09T20:47:21.810Z,11.92
2023-04-09T20:52:43.765Z,11.90
2023-04-09T20:58:06.771Z,11.86
2023-04-09T21:03:28.941Z,11.81
2023-04-09T21:08:50.829Z,11.78
2023-04-09T21:14:13.762Z,11.71
2023-04-09T21:19:35.765Z,11.63
2023-04-09T21:25:00.782Z,11.47
2023-04-09T21:30:22.763Z,11.33
2023-04-09T21:35:44.752Z,11.29
2023-04-09T21:41:06.760Z,11.28
2023-04-09T21:46:28.808Z,11.25
2023-04-09T21:51:51.779Z,11.23
2023-04-09T21:57:13.742Z,11.21
2023-04-09T22:02:35.895Z,11.17
2023-04-09T22:07:57.757Z,11.05
2023-04-09T22:13:19.770Z,10.97
2023-04-09T22:18:41.763Z,10.93
2023-04-09T22:24:03.764Z,10.85
2023-04-09T22:29:25.744Z,10.79
2023-04-09T22:34:47.753Z,10.76
2023-04-09T22:40:09.746Z,10.72
2023-04-09T22:45:33.765Z,10.70
2023-04-09T22:50:56.757Z,10.67
2023-04-09T22:56:18.737Z,10.65
2023-04-09T23:01:40.813Z,10.65
2023-04-09T23:07:02.764Z,10.61
2023-04-09T23:12:24.752Z,10.60
2023-04-09T23:17:47.820Z,10.58
2023-04-09T23:23:09.736Z,10.54
2023-04-09T23:28:31.750Z,10.51
2023-04-09T23:33:53.863Z,10.47
2023-04-09T23:39:15.716Z,10.45
2023-04-09T23:44:38.736Z,10.44
2023-04-09T23:50:00.735Z,10.39
2023-04-09T23:55:29.745Z,10.35
